sensor_id;sensor_type;location;lat;lon;timestamp;pressure;altitude;pressure_sealevel;temperature;humidity
62051;BME280;48008;51.204;6.766;2022-08-19T00:01:44;100863.00;;;20.55;74.35
62051;BME280;48008;51.204;6.766;2022-08-19T00:04:13;100869.28;;;20.48;74.26
62051;BME280;48008;51.204;6.766;2022-08-19T00:06:43;100863.91;;;20.42;74.49
62051;BME280;48008;51.204;6.766;2022-08-19T00:09:12;100870.50;;;20.46;74.52
62051;BME280;48008;51.204;6.766;2022-08-19T00:11:41;100876.97;;;20.45;74.48
62051;BME280;48008;51.204;6.766;2022-08-19T00:14:10;100872.41;;;20.39;74.80
62051;BME280;48008;51.204;6.766;2022-08-19T00:16:39;100871.19;;;20.41;75.43
62051;BME280;48008;51.204;6.766;2022-08-19T00:19:07;100863.53;;;20.38;75.47
62051;BME280;48008;51.204;6.766;2022-08-19T00:21:34;100868.91;;;20.38;75.99
62051;BME280;48008;51.204;6.766;2022-08-19T00:24:08;100864.59;;;20.30;75.65
62051;BME280;48008;51.204;6.766;2022-08-19T00:26:36;100868.31;;;20.29;76.22
62051;BME280;48008;51.204;6.766;2022-08-19T00:29:04;100864.63;;;20.24;76.50
62051;BME280;48008;51.204;6.766;2022-08-19T00:31:31;100856.81;;;20.16;76.84
62051;BME280;48008;51.204;6.766;2022-08-19T00:33:58;100866.16;;;20.06;77.01
62051;BME280;48008;51.204;6.766;2022-08-19T00:36:24;100862.00;;;20.10;76.84
62051;BME280;48008;51.204;6.766;2022-08-19T00:38:51;100856.84;;;20.02;77.50
62051;BME280;48008;51.204;6.766;2022-08-19T00:41:21;100858.53;;;20.03;77.95
62051;BME280;48008;51.204;6.766;2022-08-19T00:44:09;100862.44;;;20.01;78.23
62051;BME280;48008;51.204;6.766;2022-08-19T00:46:40;100864.75;;;19.97;78.56
62051;BME280;48008;51.204;6.766;2022-08-19T00:49:13;100863.31;;;19.94;78.40
62051;BME280;48008;51.204;6.766;2022-08-19T00:51:45;100850.25;;;19.91;77.91
62051;BME280;48008;51.204;6.766;2022-08-19T00:54:13;100863.13;;;19.89;77.44
62051;BME280;48008;51.204;6.766;2022-08-19T00:56:42;100857.75;;;19.83;77.99
62051;BME280;48008;51.204;6.766;2022-08-19T00:59:09;100843.47;;;19.82;78.41
62051;BME280;48008;51.204;6.766;2022-08-19T01:01:37;100842.47;;;19.77;78.83
62051;BME280;48008;51.204;6.766;2022-08-19T01:04:05;100847.44;;;19.80;78.47
62051;BME280;48008;51.204;6.766;2022-08-19T01:06:33;100849.50;;;19.78;79.39
62051;BME280;48008;51.204;6.766;2022-08-19T01:09:02;100860.69;;;19.81;79.54
62051;BME280;48008;51.204;6.766;2022-08-19T01:11:31;100854.66;;;19.72;79.73
62051;BME280;48008;51.204;6.766;2022-08-19T01:13:59;100853.84;;;19.72;79.25
62051;BME280;48008;51.204;6.766;2022-08-19T01:16:28;100853.22;;;19.70;79.55
62051;BME280;48008;51.204;6.766;2022-08-19T01:18:56;100859.03;;;19.73;79.50
62051;BME280;48008;51.204;6.766;2022-08-19T01:21:32;100857.78;;;19.69;80.05
62051;BME280;48008;51.204;6.766;2022-08-19T01:24:00;100857.38;;;19.66;79.86
62051;BME280;48008;51.204;6.766;2022-08-19T01:26:27;100852.41;;;19.63;79.53
62051;BME280;48008;51.204;6.766;2022-08-19T01:28:57;100847.06;;;19.56;80.21
62051;BME280;48008;51.204;6.766;2022-08-19T01:31:27;100853.25;;;19.56;80.38
62051;BME280;48008;51.204;6.766;2022-08-19T01:33:57;100852.44;;;19.56;80.46
62051;BME280;48008;51.204;6.766;2022-08-19T01:39:08;100846.25;;;19.49;80.17
62051;BME280;48008;51.204;6.766;2022-08-19T01:41:36;100842.50;;;19.50;79.74
62051;BME280;48008;51.204;6.766;2022-08-19T01:44:04;100843.53;;;19.55;80.41
62051;BME280;48008;51.204;6.766;2022-08-19T01:46:31;100842.53;;;19.43;80.12
62051;BME280;48008;51.204;6.766;2022-08-19T01:48:59;100850.41;;;19.45;79.86
62051;BME280;48008;51.204;6.766;2022-08-19T01:51:26;100853.91;;;19.45;80.01
62051;BME280;48008;51.204;6.766;2022-08-19T01:53:54;100853.28;;;19.36;80.67
62051;BME280;48008;51.204;6.766;2022-08-19T01:56:20;100846.66;;;19.39;80.89
62051;BME280;48008;51.204;6.766;2022-08-19T01:59:08;100838.16;;;19.42;80.75
62051;BME280;48008;51.204;6.766;2022-08-19T02:01:36;100842.94;;;19.33;80.30
62051;BME280;48008;51.204;6.766;2022-08-19T02:04:03;100840.69;;;19.24;81.25
62051;BME280;48008;51.204;6.766;2022-08-19T02:06:29;100836.53;;;19.28;80.76
62051;BME280;48008;51.204;6.766;2022-08-19T02:08:56;100836.13;;;19.24;80.86
62051;BME280;48008;51.204;6.766;2022-08-19T02:11:27;100834.50;;;19.16;81.11
62051;BME280;48008;51.204;6.766;2022-08-19T02:13:55;100834.06;;;19.06;81.38
62051;BME280;48008;51.204;6.766;2022-08-19T02:16:22;100828.69;;;19.06;81.37
62051;BME280;48008;51.204;6.766;2022-08-19T02:18:49;100834.28;;;19.11;81.73
62051;BME280;48008;51.204;6.766;2022-08-19T02:21:17;100844.44;;;19.09;82.31
62051;BME280;48008;51.204;6.766;2022-08-19T02:23:46;100840.09;;;19.02;82.20
62051;BME280;48008;51.204;6.766;2022-08-19T02:26:13;100847.31;;;18.94;82.62
62051;BME280;48008;51.204;6.766;2022-08-19T02:28:41;100847.53;;;18.99;82.18
62051;BME280;48008;51.204;6.766;2022-08-19T02:31:10;100847.53;;;19.06;81.85
62051;BME280;48008;51.204;6.766;2022-08-19T02:33:38;100842.78;;;19.08;82.06
62051;BME280;48008;51.204;6.766;2022-08-19T02:36:06;100846.28;;;19.09;81.96
62051;BME280;48008;51.204;6.766;2022-08-19T02:38:34;100841.13;;;19.01;82.01
62051;BME280;48008;51.204;6.766;2022-08-19T02:41:05;100843.19;;;19.05;81.78
62051;BME280;48008;51.204;6.766;2022-08-19T02:43:33;100854.97;;;19.04;81.94
62051;BME280;48008;51.204;6.766;2022-08-19T02:46:21;100858.50;;;19.05;82.61
62051;BME280;48008;51.204;6.766;2022-08-19T02:48:49;100858.09;;;19.01;83.11
62051;BME280;48008;51.204;6.766;2022-08-19T02:51:21;100857.47;;;18.92;83.10
62051;BME280;48008;51.204;6.766;2022-08-19T02:53:48;100853.31;;;18.96;83.43
62051;BME280;48008;51.204;6.766;2022-08-19T02:56:15;100864.28;;;18.95;83.66
62051;BME280;48008;51.204;6.766;2022-08-19T02:58:42;100862.03;;;18.92;83.61
62051;BME280;48008;51.204;6.766;2022-08-19T03:01:10;100866.75;;;18.90;83.84
62051;BME280;48008;51.204;6.766;2022-08-19T03:03:37;100863.44;;;18.88;84.24
62051;BME280;48008;51.204;6.766;2022-08-19T03:06:11;100866.13;;;18.88;84.01
62051;BME280;48008;51.204;6.766;2022-08-19T03:08:42;100869.66;;;18.88;83.81
62051;BME280;48008;51.204;6.766;2022-08-19T03:11:14;100866.16;;;18.94;83.88
62051;BME280;48008;51.204;6.766;2022-08-19T03:13:41;100864.91;;;19.10;83.36
62051;BME280;48008;51.204;6.766;2022-08-19T03:16:10;100863.03;;;19.04;83.79
62051;BME280;48008;51.204;6.766;2022-08-19T03:18:38;100855.19;;;18.96;84.06
62051;BME280;48008;51.204;6.766;2022-08-19T03:21:05;100856.41;;;18.93;84.13
62051;BME280;48008;51.204;6.766;2022-08-19T03:23:33;100860.75;;;18.88;84.15
62051;BME280;48008;51.204;6.766;2022-08-19T03:26:04;100859.94;;;18.94;83.93
62051;BME280;48008;51.204;6.766;2022-08-19T03:28:32;100870.09;;;18.92;83.32
62051;BME280;48008;51.204;6.766;2022-08-19T03:31:03;100868.84;;;18.81;83.41
62051;BME280;48008;51.204;6.766;2022-08-19T03:33:31;100867.78;;;18.82;83.51
62051;BME280;48008;51.204;6.766;2022-08-19T03:36:08;100862.63;;;18.94;82.94
62051;BME280;48008;51.204;6.766;2022-08-19T03:38:41;100864.28;;;18.95;82.91
62051;BME280;48008;51.204;6.766;2022-08-19T03:41:11;100864.69;;;18.98;82.61
62051;BME280;48008;51.204;6.766;2022-08-19T03:43:39;100864.47;;;18.93;83.09
62051;BME280;48008;51.204;6.766;2022-08-19T03:46:10;100870.28;;;18.90;82.88
62051;BME280;48008;51.204;6.766;2022-08-19T03:48:39;100865.72;;;18.91;82.87
62051;BME280;48008;51.204;6.766;2022-08-19T03:51:07;100872.53;;;18.93;82.89
62051;BME280;48008;51.204;6.766;2022-08-19T03:53:35;100865.72;;;18.84;83.38
62051;BME280;48008;51.204;6.766;2022-08-19T03:56:01;100869.66;;;18.95;82.82
62051;BME280;48008;51.204;6.766;2022-08-19T03:58:29;100874.63;;;18.85;83.52
62051;BME280;48008;51.204;6.766;2022-08-19T04:00:57;100876.06;;;18.87;82.85
62051;BME280;48008;51.204;6.766;2022-08-19T04:03:25;100871.69;;;18.79;83.53
62051;BME280;48008;51.204;6.766;2022-08-19T04:05:53;100872.09;;;18.76;83.81
62051;BME280;48008;51.204;6.766;2022-08-19T04:08:20;100870.22;;;18.64;84.49
62051;BME280;48008;51.204;6.766;2022-08-19T04:10:48;100871.25;;;18.56;84.67
62051;BME280;48008;51.204;6.766;2022-08-19T04:13:16;100879.50;;;18.54;85.33
62051;BME280;48008;51.204;6.766;2022-08-19T04:15:45;100881.78;;;18.64;85.06
62051;BME280;48008;51.204;6.766;2022-08-19T04:18:13;100886.75;;;18.67;84.59
62051;BME280;48008;51.204;6.766;2022-08-19T04:20:43;100880.75;;;18.58;84.56
62051;BME280;48008;51.204;6.766;2022-08-19T04:23:11;100874.97;;;18.61;84.53
62051;BME280;48008;51.204;6.766;2022-08-19T04:25:41;100868.75;;;18.54;85.07
62051;BME280;48008;51.204;6.766;2022-08-19T04:28:12;100875.34;;;18.52;85.23
62051;BME280;48008;51.204;6.766;2022-08-19T04:30:43;100880.72;;;18.52;85.15
62051;BME280;48008;51.204;6.766;2022-08-19T04:33:11;100879.72;;;18.59;84.97
62051;BME280;48008;51.204;6.766;2022-08-19T04:35:40;100875.38;;;18.58;85.00
62051;BME280;48008;51.204;6.766;2022-08-19T04:38:09;100883.63;;;18.50;84.97
62051;BME280;48008;51.204;6.766;2022-08-19T04:40:41;100879.50;;;18.54;85.02
62051;BME280;48008;51.204;6.766;2022-08-19T04:43:28;100881.56;;;18.52;85.01
62051;BME280;48008;51.204;6.766;2022-08-19T04:45:56;100886.31;;;18.50;85.26
62051;BME280;48008;51.204;6.766;2022-08-19T04:48:23;100889.63;;;18.52;85.15
62051;BME280;48008;51.204;6.766;2022-08-19T04:50:55;100890.44;;;18.53;85.40
62051;BME280;48008;51.204;6.766;2022-08-19T04:53:27;100900.56;;;18.51;85.77
62051;BME280;48008;51.204;6.766;2022-08-19T04:55:56;100898.91;;;18.56;85.02
62051;BME280;48008;51.204;6.766;2022-08-19T04:58:25;100906.34;;;18.54;84.88
62051;BME280;48008;51.204;6.766;2022-08-19T05:00:52;100910.47;;;18.44;85.40
62051;BME280;48008;51.204;6.766;2022-08-19T05:03:19;100915.78;;;18.37;85.74
62051;BME280;48008;51.204;6.766;2022-08-19T05:05:48;100914.34;;;18.34;85.82
62051;BME280;48008;51.204;6.766;2022-08-19T05:08:18;100925.47;;;18.25;85.85
62051;BME280;48008;51.204;6.766;2022-08-19T05:10:48;100933.97;;;18.28;86.06
62051;BME280;48008;51.204;6.766;2022-08-19T05:13:17;100933.56;;;18.38;85.79
62051;BME280;48008;51.204;6.766;2022-08-19T05:15:55;100934.03;;;18.55;85.32
62051;BME280;48008;51.204;6.766;2022-08-19T05:18:22;100940.38;;;18.40;85.76
62051;BME280;48008;51.204;6.766;2022-08-19T05:21:11;100941.00;;;18.42;86.10
62051;BME280;48008;51.204;6.766;2022-08-19T05:23:58;100937.31;;;18.44;86.29
62051;BME280;48008;51.204;6.766;2022-08-19T05:26:25;100942.31;;;18.60;85.83
62051;BME280;48008;51.204;6.766;2022-08-19T05:28:54;100934.84;;;18.49;86.29
62051;BME280;48008;51.204;6.766;2022-08-19T05:31:21;100952.03;;;18.54;85.61
62051;BME280;48008;51.204;6.766;2022-08-19T05:33:48;100948.28;;;18.55;85.86
62051;BME280;48008;51.204;6.766;2022-08-19T05:36:15;100959.19;;;18.40;86.85
62051;BME280;48008;51.204;6.766;2022-08-19T05:38:42;100956.69;;;18.39;87.18
62051;BME280;48008;51.204;6.766;2022-08-19T05:41:10;100955.66;;;18.33;87.65
62051;BME280;48008;51.204;6.766;2022-08-19T05:43:37;100961.44;;;18.37;87.68
62051;BME280;48008;51.204;6.766;2022-08-19T05:46:05;100955.31;;;18.50;86.88
62051;BME280;48008;51.204;6.766;2022-08-19T05:48:33;100958.59;;;18.52;86.89
62051;BME280;48008;51.204;6.766;2022-08-19T05:51:07;100955.94;;;18.52;87.18
62051;BME280;48008;51.204;6.766;2022-08-19T05:53:35;100950.19;;;18.61;87.11
62051;BME280;48008;51.204;6.766;2022-08-19T05:56:07;100945.88;;;18.80;86.30
62051;BME280;48008;51.204;6.766;2022-08-19T05:58:35;100945.25;;;18.78;85.78
62051;BME280;48008;51.204;6.766;2022-08-19T06:01:04;100942.16;;;18.75;86.34
62051;BME280;48008;51.204;6.766;2022-08-19T06:03:32;100946.47;;;18.69;86.38
62051;BME280;48008;51.204;6.766;2022-08-19T06:05:59;100939.25;;;18.63;87.00
62051;BME280;48008;51.204;6.766;2022-08-19T06:08:26;100930.16;;;18.71;86.86
62051;BME280;48008;51.204;6.766;2022-08-19T06:10:54;100936.19;;;18.79;86.34
62051;BME280;48008;51.204;6.766;2022-08-19T06:13:22;100939.66;;;18.67;87.29
62051;BME280;48008;51.204;6.766;2022-08-19T06:15:50;100933.28;;;18.74;87.16
62051;BME280;48008;51.204;6.766;2022-08-19T06:18:16;100942.78;;;18.70;87.30
62051;BME280;48008;51.204;6.766;2022-08-19T06:20:43;100951.69;;;18.77;87.33
62051;BME280;48008;51.204;6.766;2022-08-19T06:23:22;100949.41;;;18.74;86.99
62051;BME280;48008;51.204;6.766;2022-08-19T06:25:49;100941.75;;;18.78;87.13
62051;BME280;48008;51.204;6.766;2022-08-19T06:28:16;100939.13;;;18.85;86.47
62051;BME280;48008;51.204;6.766;2022-08-19T06:30:44;100931.81;;;18.78;87.01
62051;BME280;48008;51.204;6.766;2022-08-19T06:33:11;100933.75;;;18.91;86.23
62051;BME280;48008;51.204;6.766;2022-08-19T06:35:40;100938.91;;;18.86;86.11
62051;BME280;48008;51.204;6.766;2022-08-19T06:38:07;100940.16;;;18.84;86.58
62051;BME280;48008;51.204;6.766;2022-08-19T06:40:35;100932.72;;;18.92;86.40
62051;BME280;48008;51.204;6.766;2022-08-19T06:43:04;100936.25;;;18.99;86.32
62051;BME280;48008;51.204;6.766;2022-08-19T06:45:31;100943.47;;;18.99;85.92
62051;BME280;48008;51.204;6.766;2022-08-19T06:47:57;100942.03;;;19.10;85.31
62051;BME280;48008;51.204;6.766;2022-08-19T06:50:24;100946.38;;;19.04;85.69
62051;BME280;48008;51.204;6.766;2022-08-19T06:52:51;100945.75;;;19.15;85.13
62051;BME280;48008;51.204;6.766;2022-08-19T06:55:18;100941.44;;;19.14;85.20
62051;BME280;48008;51.204;6.766;2022-08-19T06:57:45;100944.31;;;19.13;85.27
62051;BME280;48008;51.204;6.766;2022-08-19T07:00:12;100945.56;;;19.24;84.92
62051;BME280;48008;51.204;6.766;2022-08-19T07:02:41;100955.50;;;19.23;84.61
62051;BME280;48008;51.204;6.766;2022-08-19T07:05:10;100953.44;;;19.12;85.02
62051;BME280;48008;51.204;6.766;2022-08-19T07:07:36;100955.50;;;19.30;84.50
62051;BME280;48008;51.204;6.766;2022-08-19T07:10:04;100949.91;;;19.18;85.62
62051;BME280;48008;51.204;6.766;2022-08-19T07:12:32;100948.28;;;19.30;84.78
62051;BME280;48008;51.204;6.766;2022-08-19T07:15:00;100950.13;;;19.36;84.50
62051;BME280;48008;51.204;6.766;2022-08-19T07:17:27;100946.63;;;19.36;84.67
62051;BME280;48008;51.204;6.766;2022-08-19T07:19:54;100952.81;;;19.30;85.25
62051;BME280;48008;51.204;6.766;2022-08-19T07:22:21;100964.19;;;19.25;86.02
62051;BME280;48008;51.204;6.766;2022-08-19T07:24:51;100969.34;;;19.33;84.84
62051;BME280;48008;51.204;6.766;2022-08-19T07:27:19;100968.75;;;19.58;83.18
62051;BME280;48008;51.204;6.766;2022-08-19T07:29:46;100970.19;;;19.54;83.62
62051;BME280;48008;51.204;6.766;2022-08-19T07:32:13;100975.34;;;19.69;82.61
62051;BME280;48008;51.204;6.766;2022-08-19T07:34:40;100971.63;;;19.70;82.74
62051;BME280;48008;51.204;6.766;2022-08-19T07:37:07;100978.69;;;19.78;83.02
62051;BME280;48008;51.204;6.766;2022-08-19T07:39:35;100981.56;;;19.89;83.02
62051;BME280;48008;51.204;6.766;2022-08-19T07:42:07;100979.69;;;19.97;82.62
62051;BME280;48008;51.204;6.766;2022-08-19T07:44:35;100981.66;;;20.28;80.65
62051;BME280;48008;51.204;6.766;2022-08-19T07:47:03;100990.34;;;20.37;79.74
62051;BME280;48008;51.204;6.766;2022-08-19T07:49:31;100995.22;;;20.66;80.05
62051;BME280;48008;51.204;6.766;2022-08-19T07:52:01;101005.91;;;20.86;78.11
62051;BME280;48008;51.204;6.766;2022-08-19T07:54:31;101005.44;;;20.96;75.89
62051;BME280;48008;51.204;6.766;2022-08-19T07:57:00;100999.63;;;20.99;76.25
62051;BME280;48008;51.204;6.766;2022-08-19T07:59:27;101003.94;;;21.07;76.45
62051;BME280;48008;51.204;6.766;2022-08-19T08:01:56;101006.84;;;21.05;76.43
62051;BME280;48008;51.204;6.766;2022-08-19T08:04:23;101012.03;;;21.07;76.45
62051;BME280;48008;51.204;6.766;2022-08-19T08:07:10;101012.88;;;21.01;76.94
62051;BME280;48008;51.204;6.766;2022-08-19T08:12:26;101014.00;;;21.25;76.70
62051;BME280;48008;51.204;6.766;2022-08-19T08:15:03;101021.94;;;21.13;76.46
62051;BME280;48008;51.204;6.766;2022-08-19T08:17:31;101023.44;;;21.02;76.54
62051;BME280;48008;51.204;6.766;2022-08-19T08:19:58;101023.84;;;21.06;76.44
62051;BME280;48008;51.204;6.766;2022-08-19T08:22:26;101014.81;;;21.25;75.91
62051;BME280;48008;51.204;6.766;2022-08-19T08:25:16;101016.97;;;21.42;75.33
62051;BME280;48008;51.204;6.766;2022-08-19T08:27:44;101016.84;;;21.62;74.75
62051;BME280;48008;51.204;6.766;2022-08-19T08:30:16;101023.06;;;21.62;74.14
62051;BME280;48008;51.204;6.766;2022-08-19T08:32:45;101028.34;;;21.76;74.03
62051;BME280;48008;51.204;6.766;2022-08-19T08:35:15;101034.22;;;21.91;73.49
62051;BME280;48008;51.204;6.766;2022-08-19T08:37:44;101033.47;;;21.84;72.68
62051;BME280;48008;51.204;6.766;2022-08-19T08:42:57;101025.75;;;21.88;72.47
62051;BME280;48008;51.204;6.766;2022-08-19T08:45:35;101031.25;;;21.99;71.81
62051;BME280;48008;51.204;6.766;2022-08-19T08:48:13;101015.69;;;21.76;72.10
62051;BME280;48008;51.204;6.766;2022-08-19T08:50:43;101018.94;;;21.85;71.73
62051;BME280;48008;51.204;6.766;2022-08-19T08:53:13;101014.28;;;21.92;71.63
62051;BME280;48008;51.204;6.766;2022-08-19T08:55:40;101023.75;;;22.01;69.69
62051;BME280;48008;51.204;6.766;2022-08-19T08:58:23;101015.66;;;22.01;69.12
62051;BME280;48008;51.204;6.766;2022-08-19T09:00:51;101018.56;;;22.00;69.35
62051;BME280;48008;51.204;6.766;2022-08-19T09:03:23;101020.06;;;21.96;68.78
62051;BME280;48008;51.204;6.766;2022-08-19T09:05:54;101022.91;;;22.01;68.15
62051;BME280;48008;51.204;6.766;2022-08-19T09:11:28;101020.06;;;22.39;65.22
62051;BME280;48008;51.204;6.766;2022-08-19T09:17:05;101018.44;;;22.69;62.74
62051;BME280;48008;51.204;6.766;2022-08-19T09:19:46;101017.81;;;22.85;62.15
62051;BME280;48008;51.204;6.766;2022-08-19T09:22:14;101021.47;;;22.91;62.16
62051;BME280;48008;51.204;6.766;2022-08-19T09:24:42;101020.63;;;23.09;61.94
62051;BME280;48008;51.204;6.766;2022-08-19T09:27:09;101016.28;;;23.08;61.14
62051;BME280;48008;51.204;6.766;2022-08-19T09:29:36;101022.78;;;23.18;60.77
62051;BME280;48008;51.204;6.766;2022-08-19T09:32:03;101020.13;;;23.30;60.32
62051;BME280;48008;51.204;6.766;2022-08-19T09:34:31;101021.38;;;23.28;59.93
62051;BME280;48008;51.204;6.766;2022-08-19T09:36:58;101016.06;;;23.21;60.67
62051;BME280;48008;51.204;6.766;2022-08-19T09:39:26;101015.75;;;23.29;60.85
62051;BME280;48008;51.204;6.766;2022-08-19T09:41:53;101024.50;;;23.43;59.73
62051;BME280;48008;51.204;6.766;2022-08-19T09:44:19;101020.59;;;23.63;58.71
62051;BME280;48008;51.204;6.766;2022-08-19T09:46:46;101022.16;;;23.58;58.44
62051;BME280;48008;51.204;6.766;2022-08-19T09:49:13;101018.28;;;23.78;58.43
62051;BME280;48008;51.204;6.766;2022-08-19T09:51:41;101012.28;;;24.11;57.47
62051;BME280;48008;51.204;6.766;2022-08-19T09:54:07;101008.63;;;24.70;56.57
62051;BME280;48008;51.204;6.766;2022-08-19T09:56:34;101014.56;;;25.13;54.41
62051;BME280;48008;51.204;6.766;2022-08-19T09:59:02;101008.78;;;25.38;52.61
62051;BME280;48008;51.204;6.766;2022-08-19T10:01:31;101015.03;;;25.55;52.41
62051;BME280;48008;51.204;6.766;2022-08-19T10:04:00;101014.19;;;25.72;52.41
62051;BME280;48008;51.204;6.766;2022-08-19T10:06:30;101014.38;;;25.65;52.17
62051;BME280;48008;51.204;6.766;2022-08-19T10:08:59;101014.94;;;25.50;52.05
62051;BME280;48008;51.204;6.766;2022-08-19T10:11:26;101013.00;;;25.17;52.31
62051;BME280;48008;51.204;6.766;2022-08-19T10:13:54;101011.09;;;25.17;53.17
62051;BME280;48008;51.204;6.766;2022-08-19T10:16:22;101005.56;;;25.41;53.04
62051;BME280;48008;51.204;6.766;2022-08-19T10:18:51;101011.66;;;25.48;51.87
62051;BME280;48008;51.204;6.766;2022-08-19T10:21:22;101020.13;;;25.35;52.21
62051;BME280;48008;51.204;6.766;2022-08-19T10:23:51;101001.09;;;25.85;52.55
62051;BME280;48008;51.204;6.766;2022-08-19T10:26:21;101003.59;;;25.53;52.29
62051;BME280;48008;51.204;6.766;2022-08-19T10:28:48;100999.16;;;25.30;52.42
62051;BME280;48008;51.204;6.766;2022-08-19T10:31:19;100991.38;;;25.90;52.24
62051;BME280;48008;51.204;6.766;2022-08-19T10:33:47;100988.47;;;26.35;50.56
62051;BME280;48008;51.204;6.766;2022-08-19T10:36:18;100994.44;;;26.59;48.99
62051;BME280;48008;51.204;6.766;2022-08-19T10:38:47;100994.41;;;26.76;48.15
62051;BME280;48008;51.204;6.766;2022-08-19T10:41:19;100991.81;;;26.65;48.07
62051;BME280;48008;51.204;6.766;2022-08-19T10:43:46;100996.03;;;26.77;48.08
62051;BME280;48008;51.204;6.766;2022-08-19T10:46:15;100990.75;;;26.66;48.13
62051;BME280;48008;51.204;6.766;2022-08-19T10:48:43;100996.34;;;26.81;47.68
62051;BME280;48008;51.204;6.766;2022-08-19T10:51:11;100988.03;;;26.43;48.65
62051;BME280;48008;51.204;6.766;2022-08-19T10:53:58;100992.13;;;25.85;48.96
62051;BME280;48008;51.204;6.766;2022-08-19T10:56:26;100999.16;;;25.64;50.43
62051;BME280;48008;51.204;6.766;2022-08-19T10:59:15;100996.28;;;25.71;50.89
62051;BME280;48008;51.204;6.766;2022-08-19T11:01:44;100991.84;;;25.47;50.79
62051;BME280;48008;51.204;6.766;2022-08-19T11:04:12;100981.72;;;25.60;51.02
62051;BME280;48008;51.204;6.766;2022-08-19T11:06:41;100990.66;;;25.60;51.36
62051;BME280;48008;51.204;6.766;2022-08-19T11:09:09;100985.88;;;25.67;51.01
62051;BME280;48008;51.204;6.766;2022-08-19T11:11:38;100976.13;;;25.89;49.53
62051;BME280;48008;51.204;6.766;2022-08-19T11:14:10;100990.03;;;26.09;49.14
62051;BME280;48008;51.204;6.766;2022-08-19T11:16:38;100983.34;;;26.17;49.57
62051;BME280;48008;51.204;6.766;2022-08-19T11:19:07;100989.66;;;26.44;47.98
62051;BME280;48008;51.204;6.766;2022-08-19T11:21:38;100986.22;;;26.10;47.83
62051;BME280;48008;51.204;6.766;2022-08-19T11:24:08;100994.53;;;25.81;48.90
62051;BME280;48008;51.204;6.766;2022-08-19T11:26:37;100988.09;;;25.88;48.48
62051;BME280;48008;51.204;6.766;2022-08-19T11:29:05;100981.03;;;26.09;48.91
62051;BME280;48008;51.204;6.766;2022-08-19T11:31:39;100983.09;;;26.62;47.53
62051;BME280;48008;51.204;6.766;2022-08-19T11:34:08;100978.59;;;26.29;47.99
62051;BME280;48008;51.204;6.766;2022-08-19T11:36:38;100984.38;;;25.94;48.41
62051;BME280;48008;51.204;6.766;2022-08-19T11:39:13;100977.50;;;25.52;49.27
62051;BME280;48008;51.204;6.766;2022-08-19T11:41:40;100973.09;;;26.02;48.82
62051;BME280;48008;51.204;6.766;2022-08-19T11:44:08;100969.03;;;26.49;47.37
62051;BME280;48008;51.204;6.766;2022-08-19T11:46:36;100963.22;;;26.89;45.26
62051;BME280;48008;51.204;6.766;2022-08-19T11:49:05;100968.13;;;26.92;44.15
62051;BME280;48008;51.204;6.766;2022-08-19T11:51:34;100966.13;;;27.10;42.92
62051;BME280;48008;51.204;6.766;2022-08-19T11:54:01;100966.31;;;27.30;43.00
62051;BME280;48008;51.204;6.766;2022-08-19T11:56:28;100968.19;;;26.97;43.26
62051;BME280;48008;51.204;6.766;2022-08-19T11:58:55;100961.44;;;27.00;43.66
62051;BME280;48008;51.204;6.766;2022-08-19T12:01:25;100972.13;;;27.12;44.37
62051;BME280;48008;51.204;6.766;2022-08-19T12:03:53;100977.38;;;27.51;43.78
62051;BME280;48008;51.204;6.766;2022-08-19T12:06:23;100968.81;;;27.37;43.53
62051;BME280;48008;51.204;6.766;2022-08-19T12:08:51;100973.34;;;27.58;42.64
62051;BME280;48008;51.204;6.766;2022-08-19T12:11:18;100969.72;;;27.90;42.65
62051;BME280;48008;51.204;6.766;2022-08-19T12:13:45;100973.25;;;27.16;42.45
62051;BME280;48008;51.204;6.766;2022-08-19T12:16:16;100972.00;;;26.96;43.30
62051;BME280;48008;51.204;6.766;2022-08-19T12:18:43;100970.50;;;27.11;42.63
62051;BME280;48008;51.204;6.766;2022-08-19T12:21:14;100962.25;;;27.33;42.32
62051;BME280;48008;51.204;6.766;2022-08-19T12:23:42;100950.75;;;27.63;41.14
62051;BME280;48008;51.204;6.766;2022-08-19T12:26:10;100952.72;;;27.73;40.54
62051;BME280;48008;51.204;6.766;2022-08-19T12:28:38;100945.78;;;27.98;40.30
62051;BME280;48008;51.204;6.766;2022-08-19T12:31:05;100941.31;;;27.81;40.33
62051;BME280;48008;51.204;6.766;2022-08-19T12:33:32;100945.59;;;28.14;40.00
62051;BME280;48008;51.204;6.766;2022-08-19T12:36:02;100957.56;;;28.08;40.17
62051;BME280;48008;51.204;6.766;2022-08-19T12:38:30;100944.69;;;27.93;41.00
62051;BME280;48008;51.204;6.766;2022-08-19T12:40:58;100940.06;;;27.99;40.42
62051;BME280;48008;51.204;6.766;2022-08-19T12:43:26;100940.16;;;28.25;39.10
62051;BME280;48008;51.204;6.766;2022-08-19T12:45:53;100940.09;;;28.04;39.68
62051;BME280;48008;51.204;6.766;2022-08-19T12:48:19;100929.31;;;27.77;40.20
62051;BME280;48008;51.204;6.766;2022-08-19T12:50:46;100939.72;;;27.85;41.57
62051;BME280;48008;51.204;6.766;2022-08-19T12:53:13;100943.06;;;27.98;40.62
62051;BME280;48008;51.204;6.766;2022-08-19T12:55:41;100942.00;;;27.61;40.96
62051;BME280;48008;51.204;6.766;2022-08-19T12:58:09;100939.69;;;27.37;41.54
62051;BME280;48008;51.204;6.766;2022-08-19T13:00:36;100946.97;;;26.99;41.71
62051;BME280;48008;51.204;6.766;2022-08-19T13:03:03;100937.09;;;27.20;41.46
62051;BME280;48008;51.204;6.766;2022-08-19T13:05:31;100936.38;;;27.03;42.70
62051;BME280;48008;51.204;6.766;2022-08-19T13:08:00;100943.88;;;27.18;42.04
62051;BME280;48008;51.204;6.766;2022-08-19T13:10:30;100931.84;;;27.14;41.68
62051;BME280;48008;51.204;6.766;2022-08-19T13:13:03;100925.78;;;27.87;41.16
62051;BME280;48008;51.204;6.766;2022-08-19T13:15:35;100927.00;;;27.96;40.70